createdAt,value
2018-10-18T00:02:11.117Z,71.80
2018-10-18T00:04:39.085Z,71.90
2018-10-18T00:07:07.046Z,71.80
2018-10-18T00:09:34.821Z,72.00
2018-10-18T00:12:02.721Z,72.20
2018-10-18T00:14:30.549Z,72.30
2018-10-18T00:16:58.341Z,72.60
2018-10-18T00:19:26.142Z,72.70
2018-10-18T00:21:53.922Z,72.60
2018-10-18T00:24:21.757Z,72.30
2018-10-18T00:26:49.558Z,72.00
2018-10-18T00:29:17.335Z,72.20
2018-10-18T00:31:45.149Z,72.10
2018-10-18T00:34:13.002Z,72.30
2018-10-18T00:36:40.954Z,72.10
2018-10-18T00:39:11.233Z,72.20
2018-10-18T00:41:39.021Z,72.30
2018-10-18T00:44:07.537Z,72.30
2018-10-18T00:46:35.261Z,72.00
2018-10-18T00:49:03.093Z,72.00
2018-10-18T00:51:30.866Z,71.50
2018-10-18T00:53:58.647Z,71.10
2018-10-18T00:56:26.478Z,71.00
2018-10-18T00:58:54.237Z,70.60
2018-10-18T01:01:22.009Z,70.90
2018-10-18T01:03:50.969Z,71.00
2018-10-18T01:06:18.879Z,71.00
2018-10-18T01:08:46.778Z,71.50
2018-10-18T01:11:14.617Z,71.80
2018-10-18T01:13:42.477Z,72.10
2018-10-18T01:16:10.303Z,72.10
2018-10-18T01:18:38.109Z,72.00
2018-10-18T01:21:05.937Z,72.30
2018-10-18T01:23:33.728Z,72.40
2018-10-18T01:26:01.840Z,72.50
2018-10-18T01:28:29.813Z,73.10
2018-10-18T01:30:57.613Z,73.20
2018-10-18T01:33:25.409Z,73.10
2018-10-18T01:35:53.214Z,73.10
2018-10-18T01:38:20.998Z,73.00
2018-10-18T01:40:49.870Z,73.20
2018-10-18T01:43:17.768Z,73.00
2018-10-18T01:45:45.601Z,73.60
2018-10-18T01:48:13.422Z,74.00
2018-10-18T01:50:41.473Z,74.20
2018-10-18T01:53:09.471Z,74.20
2018-10-18T01:55:37.419Z,74.10
2018-10-18T01:58:05.477Z,73.80
2018-10-18T02:00:33.273Z,73.90
2018-10-18T02:03:01.036Z,73.80
2018-10-18T02:05:28.837Z,73.90
2018-10-18T02:07:56.664Z,74.00
2018-10-18T02:10:24.462Z,73.80
2018-10-18T02:12:52.226Z,73.90
2018-10-18T02:15:20.205Z,74.10
2018-10-18T02:17:48.059Z,74.20
2018-10-18T02:20:15.834Z,74.20
2018-10-18T02:22:43.625Z,74.40
2018-10-18T02:25:11.592Z,74.40
2018-10-18T02:27:39.488Z,73.70
2018-10-18T02:30:07.515Z,73.80
2018-10-18T02:32:35.209Z,74.10
2018-10-18T02:35:03.188Z,74.40
2018-10-18T02:37:30.974Z,74.40
2018-10-18T02:39:58.781Z,74.50
2018-10-18T02:42:26.573Z,74.40
2018-10-18T02:44:54.382Z,74.40
2018-10-18T02:47:22.170Z,74.10
2018-10-18T02:49:49.950Z,74.40
2018-10-18T02:52:17.813Z,74.60
2018-10-18T02:54:45.623Z,74.60
2018-10-18T02:57:13.502Z,74.90
2018-10-18T02:59:41.505Z,75.20
2018-10-18T03:02:09.954Z,75.30
2018-10-18T03:04:37.977Z,75.20
2018-10-18T03:07:05.872Z,75.10
2018-10-18T03:09:33.669Z,75.00
2018-10-18T03:12:01.487Z,75.20
2018-10-18T03:14:29.418Z,75.00
2018-10-18T03:16:57.234Z,75.20
2018-10-18T03:19:25.085Z,75.50
2018-10-18T03:21:52.876Z,75.40
2018-10-18T03:24:20.663Z,75.40
2018-10-18T03:26:48.525Z,75.40
2018-10-18T03:29:16.334Z,75.60
2018-10-18T03:31:44.152Z,75.50
2018-10-18T03:34:11.981Z,75.30
2018-10-18T03:36:39.872Z,75.60
2018-10-18T03:39:08.979Z,75.20
2018-10-18T03:41:36.928Z,75.10
2018-10-18T03:44:05.177Z,75.20
2018-10-18T03:46:33.005Z,75.20
2018-10-18T03:49:01.368Z,75.20
2018-10-18T03:51:29.154Z,75.20
2018-10-18T03:53:57.009Z,75.40
2018-10-18T03:56:24.800Z,75.60
2018-10-18T03:58:52.568Z,75.90
2018-10-18T04:01:20.441Z,76.20
2018-10-18T04:03:48.234Z,76.50
2018-10-18T04:06:16.893Z,76.80
2018-10-18T04:08:44.695Z,77.10
2018-10-18T04:11:12.645Z,77.10
2018-10-18T04:13:40.510Z,77.20
2018-10-18T04:16:08.361Z,77.20
2018-10-18T04:18:36.267Z,77.40
2018-10-18T04:21:04.053Z,77.40
2018-10-18T04:23:32.895Z,77.30
2018-10-18T04:26:01.541Z,77.60
2018-10-18T04:28:29.692Z,77.70
2018-10-18T04:30:57.481Z,77.70
2018-10-18T04:33:25.274Z,77.60
2018-10-18T04:35:53.203Z,78.00
2018-10-18T04:38:20.970Z,78.30
2018-10-18T04:40:49.067Z,78.40
2018-10-18T04:43:16.834Z,78.40
2018-10-18T04:45:44.672Z,78.40
2018-10-18T04:48:12.881Z,78.20
2018-10-18T04:50:40.929Z,79.10
2018-10-18T04:53:08.821Z,78.30
2018-10-18T04:55:36.626Z,78.60
2018-10-18T04:58:04.839Z,78.50
2018-10-18T05:00:32.641Z,78.40
2018-10-18T05:03:00.488Z,78.70
2018-10-18T05:05:39.480Z,78.80
2018-10-18T05:08:07.405Z,79.10
2018-10-18T05:10:35.206Z,79.10
2018-10-18T05:13:03.089Z,79.00
2018-10-18T05:15:30.833Z,79.20
2018-10-18T05:17:58.673Z,79.10
2018-10-18T05:20:26.482Z,79.00
2018-10-18T05:22:57.493Z,78.90
2018-10-18T05:25:25.322Z,78.80
2018-10-18T05:27:53.123Z,79.40
2018-10-18T05:30:21.041Z,79.10
2018-10-18T05:32:48.965Z,79.50
2018-10-18T05:35:16.729Z,79.60
2018-10-18T05:37:44.647Z,79.80
2018-10-18T05:40:12.685Z,79.80
2018-10-18T05:42:40.629Z,80.10
2018-10-18T05:45:08.615Z,80.20
2018-10-18T05:47:36.401Z,80.30
2018-10-18T05:50:05.316Z,80.00
2018-10-18T05:52:33.161Z,80.50
2018-10-18T05:55:01.015Z,81.10
2018-10-18T05:57:28.877Z,80.20
2018-10-18T05:59:56.754Z,80.20
2018-10-18T06:02:24.687Z,80.40
2018-10-18T06:04:52.562Z,80.50
2018-10-18T06:07:20.412Z,80.60
2018-10-18T06:09:48.304Z,80.70
2018-10-18T06:12:16.213Z,80.80
2018-10-18T06:14:44.188Z,81.00
2018-10-18T06:17:12.426Z,80.70
2018-10-18T06:19:40.418Z,80.70
2018-10-18T06:22:08.542Z,80.50
2018-10-18T06:24:36.486Z,80.50
2018-10-18T06:27:04.378Z,80.60
2018-10-18T06:29:32.237Z,80.20
2018-10-18T06:32:00.130Z,79.90
2018-10-18T06:34:28.018Z,79.90
2018-10-18T06:36:55.905Z,79.20
2018-10-18T06:39:24.555Z,79.10
2018-10-18T06:41:52.372Z,78.90
2018-10-18T06:44:20.246Z,78.60
2018-10-18T06:46:48.143Z,78.50
2018-10-18T06:49:16.074Z,78.30
2018-10-18T06:51:44.072Z,78.20
2018-10-18T06:54:12.145Z,78.20
2018-10-18T06:56:39.945Z,77.40
2018-10-18T06:59:07.878Z,76.90
2018-10-18T07:01:35.766Z,76.60
2018-10-18T07:04:03.844Z,76.50
2018-10-18T07:06:31.698Z,76.40
2018-10-18T07:08:59.645Z,75.80
2018-10-18T07:11:28.769Z,75.90
2018-10-18T07:13:56.667Z,75.70
2018-10-18T07:16:24.552Z,75.50
2018-10-18T07:18:52.509Z,75.50
2018-10-18T07:21:20.403Z,75.40
2018-10-18T07:23:48.255Z,75.40
2018-10-18T07:26:16.137Z,75.10
2018-10-18T07:28:44.044Z,74.50
2018-10-18T07:31:12.271Z,74.20
2018-10-18T07:33:40.220Z,73.80
2018-10-18T07:36:08.170Z,73.20
2018-10-18T07:38:35.937Z,72.80
2018-10-18T07:41:04.037Z,71.70
2018-10-18T07:43:31.941Z,71.50
2018-10-18T07:45:59.865Z,71.70
2018-10-18T07:48:27.971Z,71.10
2018-10-18T07:50:55.830Z,70.50
2018-10-18T07:53:23.767Z,70.30
2018-10-18T07:55:51.656Z,70.70
2018-10-18T07:58:19.492Z,68.80
2018-10-18T08:00:47.500Z,66.70
2018-10-18T08:03:15.281Z,66.70
2018-10-18T08:05:43.189Z,65.00
2018-10-18T08:08:11.172Z,64.40
2018-10-18T08:10:39.024Z,63.70
2018-10-18T08:13:07.002Z,63.90
2018-10-18T08:15:34.768Z,65.00
2018-10-18T08:18:02.656Z,63.50
2018-10-18T08:20:30.528Z,62.90
2018-10-18T08:22:58.378Z,61.10
2018-10-18T08:25:26.445Z,60.40
2018-10-18T08:27:54.309Z,59.90
2018-10-18T08:30:22.190Z,59.10
2018-10-18T08:32:50.062Z,58.30
2018-10-18T08:35:17.921Z,57.50
2018-10-18T08:37:46.035Z,57.30
2018-10-18T08:40:15.205Z,56.90
2018-10-18T08:42:43.170Z,56.40
2018-10-18T08:45:11.672Z,56.20
2018-10-18T08:47:39.733Z,55.80
2018-10-18T08:50:09.382Z,55.50
2018-10-18T08:52:37.393Z,54.90
2018-10-18T08:55:06.837Z,54.90
2018-10-18T08:57:34.665Z,53.80
2018-10-18T09:00:02.534Z,53.20
2018-10-18T09:02:30.400Z,53.30
2018-10-18T09:04:58.277Z,53.50
2018-10-18T09:07:26.117Z,52.00
2018-10-18T09:09:53.981Z,52.00
2018-10-18T09:12:21.848Z,50.60
2018-10-18T09:14:49.757Z,50.60
2018-10-18T09:17:17.624Z,49.90
2018-10-18T09:19:45.569Z,49.10
2018-10-18T09:22:13.745Z,47.90
2018-10-18T09:24:41.677Z,47.60
2018-10-18T09:27:09.572Z,47.00
2018-10-18T09:29:37.437Z,46.80
2018-10-18T09:32:05.425Z,46.70
2018-10-18T09:34:33.285Z,47.20
2018-10-18T09:37:01.177Z,46.20
2018-10-18T09:39:29.053Z,46.40
2018-10-18T09:41:58.741Z,46.80
2018-10-18T09:44:26.712Z,46.40
2018-10-18T09:46:54.541Z,46.50
2018-10-18T09:49:22.383Z,46.80
2018-10-18T09:51:50.260Z,46.50
2018-10-18T09:54:18.148Z,46.10
2018-10-18T09:56:46.088Z,46.20
2018-10-18T09:59:14.245Z,46.50
2018-10-18T10:01:48.092Z,46.30
2018-10-18T10:04:16.073Z,46.00
2018-10-18T10:06:44.069Z,45.70
2018-10-18T10:09:11.946Z,45.00
2018-10-18T10:11:39.909Z,44.90
2018-10-18T10:14:07.722Z,45.20
2018-10-18T10:16:35.569Z,44.20
2018-10-18T10:19:03.495Z,44.50
2018-10-18T10:21:31.366Z,44.40
2018-10-18T10:23:59.226Z,43.60
2018-10-18T10:26:27.086Z,43.50
2018-10-18T10:28:55.764Z,42.80
2018-10-18T10:31:23.660Z,43.40
2018-10-18T10:33:51.525Z,43.20
2018-10-18T10:36:19.440Z,42.70
2018-10-18T10:38:47.364Z,42.50
2018-10-18T10:41:15.281Z,41.80
2018-10-18T10:43:43.290Z,41.50
2018-10-18T10:46:11.220Z,40.90
2018-10-18T10:48:39.038Z,41.40
2018-10-18T10:51:06.999Z,41.20
2018-10-18T10:53:34.817Z,41.80
2018-10-18T10:56:02.805Z,42.00
2018-10-18T10:58:30.589Z,41.70
2018-10-18T11:01:10.316Z,41.50
2018-10-18T11:03:39.183Z,40.60
2018-10-18T11:06:07.101Z,40.80
2018-10-18T11:08:35.150Z,39.60
2018-10-18T11:11:03.044Z,40.20
2018-10-18T11:13:30.957Z,40.80
2018-10-18T11:16:00.285Z,41.40
2018-10-18T11:18:28.246Z,41.00
2018-10-18T11:20:56.172Z,41.60
2018-10-18T11:23:23.968Z,40.90
2018-10-18T11:25:52.105Z,40.90
2018-10-18T11:28:19.997Z,40.10
2018-10-18T11:30:47.897Z,39.90
2018-10-18T11:33:15.838Z,40.70
2018-10-18T11:35:44.454Z,41.10
2018-10-18T11:38:13.555Z,40.10
2018-10-18T11:40:41.549Z,39.10
2018-10-18T11:43:10.162Z,39.30
2018-10-18T11:45:39.021Z,39.20
2018-10-18T11:48:07.846Z,37.00
2018-10-18T11:50:35.633Z,38.10
2018-10-18T11:53:03.521Z,37.60
2018-10-18T11:55:31.444Z,37.10
2018-10-18T11:57:59.373Z,35.50
2018-10-18T12:00:27.280Z,35.10
2018-10-18T12:02:55.157Z,35.80
2018-10-18T12:05:23.078Z,36.30
2018-10-18T12:07:50.967Z,36.20
2018-10-18T12:10:18.856Z,36.10
2018-10-18T12:12:46.926Z,35.30
2018-10-18T12:15:15.149Z,35.40
2018-10-18T12:17:43.046Z,35.30
2018-10-18T12:20:14.318Z,35.10
2018-10-18T12:22:42.265Z,34.70
2018-10-18T12:25:10.751Z,34.70
2018-10-18T12:27:38.773Z,35.10
2018-10-18T12:30:07.350Z,34.80
2018-10-18T12:32:35.505Z,34.30
2018-10-18T12:35:03.523Z,34.20
2018-10-18T12:37:31.377Z,33.20
2018-10-18T12:39:59.392Z,33.00
2018-10-18T12:42:27.317Z,32.40
2018-10-18T12:44:55.204Z,32.80
2018-10-18T12:47:23.068Z,32.30
2018-10-18T12:49:50.952Z,31.60
2018-10-18T12:52:18.854Z,32.80
2018-10-18T12:54:46.854Z,32.70
2018-10-18T12:57:15.083Z,32.20
2018-10-18T12:59:43.049Z,32.50
2018-10-18T13:02:10.995Z,33.10
2018-10-18T13:04:38.800Z,33.30
2018-10-18T13:07:06.757Z,33.90
2018-10-18T13:09:34.650Z,33.20
2018-10-18T13:12:02.597Z,33.40
2018-10-18T13:14:30.782Z,33.50
2018-10-18T13:16:58.655Z,32.90
2018-10-18T13:19:26.717Z,32.70
2018-10-18T13:21:54.620Z,31.80
2018-10-18T13:24:22.650Z,31.30
2018-10-18T13:26:50.753Z,32.00
2018-10-18T13:29:18.645Z,31.90
2018-10-18T13:31:46.880Z,32.20
2018-10-18T13:34:14.997Z,32.00
2018-10-18T13:36:42.867Z,32.50
2018-10-18T13:39:14.525Z,32.60
2018-10-18T13:41:42.408Z,32.80
2018-10-18T13:44:10.317Z,33.00
2018-10-18T13:46:38.718Z,33.50
2018-10-18T13:49:06.816Z,33.70
2018-10-18T13:51:35.216Z,34.00
2018-10-18T13:54:03.214Z,33.70
2018-10-18T13:56:31.062Z,34.80
2018-10-18T13:58:58.954Z,34.70
2018-10-18T14:01:27.245Z,34.30
2018-10-18T14:03:55.181Z,34.40
2018-10-18T14:06:23.151Z,34.20
2018-10-18T14:08:51.026Z,33.70
2018-10-18T14:11:19.004Z,33.90
2018-10-18T14:13:46.925Z,34.10
2018-10-18T14:16:15.209Z,34.30
2018-10-18T14:18:43.152Z,34.70
2018-10-18T14:21:11.063Z,35.30
2018-10-18T14:23:38.953Z,34.70
2018-10-18T14:26:06.940Z,34.90
2018-10-18T14:28:34.779Z,35.60
2018-10-18T14:31:02.632Z,35.50
2018-10-18T14:33:30.519Z,35.60
2018-10-18T14:35:58.393Z,36.70
2018-10-18T14:38:26.283Z,37.20
2018-10-18T14:40:54.173Z,37.20
2018-10-18T14:43:22.043Z,37.80
2018-10-18T14:45:49.984Z,38.20
2018-10-18T14:48:17.949Z,38.30
2018-10-18T14:50:46.478Z,38.80
2018-10-18T14:53:14.397Z,38.70
2018-10-18T14:55:42.306Z,38.40
2018-10-18T14:58:10.187Z,39.10
2018-10-18T15:00:38.253Z,39.10
2018-10-18T15:03:06.143Z,39.40
2018-10-18T15:05:34.025Z,39.70
2018-10-18T15:08:01.940Z,39.50
2018-10-18T15:10:29.893Z,39.60
2018-10-18T15:12:57.758Z,40.00
2018-10-18T15:15:25.661Z,40.70
2018-10-18T15:17:53.549Z,40.50
2018-10-18T15:20:21.456Z,41.30
2018-10-18T15:22:49.361Z,42.00
2018-10-18T15:25:17.441Z,42.40
2018-10-18T15:27:45.618Z,43.10
2018-10-18T15:30:13.437Z,44.00
2018-10-18T15:32:41.351Z,44.20
2018-10-18T15:35:10.363Z,44.40
2018-10-18T15:37:38.521Z,46.20
2018-10-18T15:40:06.779Z,46.20
2018-10-18T15:42:34.857Z,46.90
2018-10-18T15:45:02.825Z,47.60
2018-10-18T15:47:30.692Z,48.00
2018-10-18T15:49:58.474Z,48.60
2018-10-18T15:52:26.369Z,49.20
2018-10-18T15:54:54.229Z,50.60
2018-10-18T15:57:23.229Z,51.30
2018-10-18T15:59:51.097Z,51.80
2018-10-18T16:02:19.069Z,52.40
2018-10-18T16:04:47.313Z,54.10
2018-10-18T16:07:15.412Z,53.50
2018-10-18T16:09:43.309Z,54.10
2018-10-18T16:12:11.216Z,54.80
2018-10-18T16:14:39.081Z,55.70
2018-10-18T16:17:07.008Z,56.30
2018-10-18T16:19:34.906Z,56.90
2018-10-18T16:22:02.781Z,57.40
2018-10-18T16:24:30.629Z,58.20
2018-10-18T16:26:58.659Z,58.90
2018-10-18T16:29:26.565Z,59.90
2018-10-18T16:31:54.452Z,59.90
2018-10-18T16:34:22.329Z,60.90
2018-10-18T16:36:50.189Z,61.10
2018-10-18T16:39:18.188Z,62.20
2018-10-18T16:41:46.334Z,62.20
2018-10-18T16:44:14.247Z,62.70
2018-10-18T16:46:42.124Z,63.80
2018-10-18T16:49:09.996Z,64.40
2018-10-18T16:51:37.931Z,64.80
2018-10-18T16:54:06.150Z,65.50
2018-10-18T16:56:34.076Z,65.80
2018-10-18T16:59:02.205Z,66.60
2018-10-18T17:01:30.230Z,66.90
2018-10-18T17:03:58.640Z,67.60
2018-10-18T17:06:26.567Z,67.40
2018-10-18T17:08:54.458Z,68.00
2018-10-18T17:11:22.470Z,68.80
2018-10-18T17:13:50.340Z,68.80
2018-10-18T17:16:19.159Z,69.80
2018-10-18T17:18:47.123Z,70.10
2018-10-18T17:21:15.180Z,69.80
2018-10-18T17:23:43.005Z,70.00
2018-10-18T17:26:11.001Z,70.50
2018-10-18T17:28:38.846Z,71.00
2018-10-18T17:31:06.754Z,71.00
2018-10-18T17:33:34.695Z,71.60
2018-10-18T17:36:02.614Z,71.60
2018-10-18T17:38:30.789Z,72.40
2018-10-18T17:41:01.220Z,72.70
2018-10-18T17:43:29.335Z,72.50
2018-10-18T17:45:57.243Z,72.60
2018-10-18T17:48:25.118Z,73.10
2018-10-18T17:50:53.069Z,73.10
2018-10-18T17:53:20.957Z,73.30
2018-10-18T17:55:48.981Z,74.00
2018-10-18T17:58:17.155Z,74.20
2018-10-18T18:00:45.089Z,74.40
2018-10-18T18:03:12.952Z,74.50
2018-10-18T18:05:40.982Z,74.50
2018-10-18T18:08:08.986Z,73.90
2018-10-18T18:10:36.904Z,74.60
2018-10-18T18:13:04.975Z,74.70
2018-10-18T18:15:32.835Z,74.70
2018-10-18T18:18:00.903Z,74.80
2018-10-18T18:20:28.996Z,75.20
2018-10-18T18:22:56.881Z,75.90
2018-10-18T18:25:24.781Z,75.80
2018-10-18T18:27:52.597Z,76.10
2018-10-18T18:30:20.383Z,76.60
2018-10-18T18:32:48.292Z,76.70
2018-10-18T18:35:16.237Z,76.10
2018-10-18T18:37:44.028Z,76.60
2018-10-18T18:40:11.805Z,77.00
2018-10-18T18:42:40.109Z,77.50
2018-10-18T18:45:13.689Z,76.80
2018-10-18T18:47:41.673Z,77.50
2018-10-18T18:50:09.775Z,77.00
2018-10-18T18:52:37.611Z,76.90
2018-10-18T18:55:06.077Z,77.20
2018-10-18T18:57:33.849Z,77.40
2018-10-18T19:00:01.667Z,77.40
2018-10-18T19:02:29.468Z,77.90
2018-10-18T19:04:57.262Z,77.90
2018-10-18T19:07:25.063Z,77.90
2018-10-18T19:09:52.896Z,78.40
2018-10-18T19:12:20.765Z,78.50
2018-10-18T19:14:48.734Z,79.10
2018-10-18T19:17:16.657Z,79.70
2018-10-18T19:19:44.488Z,79.60
2018-10-18T19:22:12.456Z,80.40
2018-10-18T19:24:40.432Z,80.50
2018-10-18T19:27:08.461Z,80.10
2018-10-18T19:29:36.285Z,80.10
2018-10-18T19:32:04.413Z,79.90
2018-10-18T19:34:32.317Z,79.60
2018-10-18T19:37:00.162Z,80.30
2018-10-18T19:39:28.785Z,80.30
2018-10-18T19:41:56.581Z,80.40
2018-10-18T19:44:24.377Z,80.00
2018-10-18T19:46:52.173Z,80.50
2018-10-18T19:49:20.033Z,80.50
2018-10-18T19:51:48.309Z,80.60
2018-10-18T19:54:16.205Z,80.30
2018-10-18T19:56:44.177Z,80.20
2018-10-18T19:59:12.110Z,79.80
2018-10-18T20:01:39.990Z,80.30
2018-10-18T20:04:07.915Z,80.00
2018-10-18T20:06:35.847Z,80.20
2018-10-18T20:09:05.801Z,80.10
2018-10-18T20:11:33.668Z,80.50
2018-10-18T20:14:01.569Z,80.60
2018-10-18T20:16:29.485Z,81.00
2018-10-18T20:18:57.419Z,81.00
2018-10-18T20:21:25.367Z,81.60
2018-10-18T20:23:53.336Z,81.10
2018-10-18T20:26:21.464Z,80.90
2018-10-18T20:28:49.342Z,80.60
2018-10-18T20:31:17.600Z,81.20
2018-10-18T20:33:45.491Z,81.40
2018-10-18T20:36:13.307Z,82.60
2018-10-18T20:38:41.204Z,82.00
2018-10-18T20:41:09.212Z,81.90
2018-10-18T20:43:37.078Z,82.90
2018-10-18T20:46:05.161Z,81.90
2018-10-18T20:48:33.133Z,82.30
2018-10-18T20:51:01.207Z,82.20
2018-10-18T20:53:29.066Z,82.10
2018-10-18T20:55:56.921Z,82.30
2018-10-18T20:58:24.768Z,82.10
2018-10-18T21:00:52.526Z,81.90
2018-10-18T21:03:20.354Z,82.30
2018-10-18T21:05:48.440Z,82.00
2018-10-18T21:08:16.356Z,82.20
2018-10-18T21:10:44.169Z,81.90
2018-10-18T21:13:11.990Z,81.90
2018-10-18T21:15:39.777Z,82.10
2018-10-18T21:18:07.608Z,82.70
2018-10-18T21:20:35.445Z,82.80
2018-10-18T21:23:03.286Z,82.70
2018-10-18T21:25:32.955Z,83.30
2018-10-18T21:28:00.797Z,83.80
2018-10-18T21:30:28.577Z,83.40
2018-10-18T21:32:56.434Z,83.10
2018-10-18T21:35:24.288Z,83.00
2018-10-18T21:37:52.097Z,83.00
2018-10-18T21:40:19.960Z,82.50
2018-10-18T21:42:48.037Z,81.10
2018-10-18T21:45:16.474Z,81.40
2018-10-18T21:47:44.336Z,81.80
2018-10-18T21:50:12.132Z,81.50
2018-10-18T21:52:39.978Z,82.00
2018-10-18T21:55:07.850Z,82.30
2018-10-18T21:57:41.621Z,82.10
2018-10-18T22:00:13.869Z,81.80
2018-10-18T22:02:42.740Z,81.50
2018-10-18T22:05:11.052Z,81.50
2018-10-18T22:07:39.037Z,81.40
2018-10-18T22:10:07.017Z,81.00
2018-10-18T22:12:35.081Z,81.40
2018-10-18T22:15:03.063Z,81.30
2018-10-18T22:17:30.864Z,81.80
2018-10-18T22:19:58.660Z,82.70
2018-10-18T22:22:26.496Z,83.20
2018-10-18T22:24:54.317Z,83.20
2018-10-18T22:27:22.125Z,83.50
2018-10-18T22:29:50.900Z,84.10
2018-10-18T22:32:18.837Z,83.80
2018-10-18T22:34:46.733Z,84.00
2018-10-18T22:37:14.548Z,84.40
2018-10-18T22:39:42.390Z,85.20
2018-10-18T22:42:10.220Z,84.00
2018-10-18T22:44:38.000Z,83.50
2018-10-18T22:47:05.870Z,83.10
2018-10-18T22:49:33.601Z,84.00
2018-10-18T22:52:01.353Z,83.00
2018-10-18T22:54:29.381Z,82.60
2018-10-18T22:56:57.181Z,82.50
2018-10-18T22:59:25.515Z,82.70
2018-10-18T23:01:53.305Z,82.60
2018-10-18T23:04:21.065Z,82.50
2018-10-18T23:06:49.058Z,82.50
2018-10-18T23:09:17.489Z,82.60
2018-10-18T23:11:45.165Z,82.80
2018-10-18T23:14:12.957Z,82.80
2018-10-18T23:16:40.867Z,82.70
2018-10-18T23:19:09.474Z,82.90
2018-10-18T23:21:37.383Z,82.90
2018-10-18T23:24:05.557Z,82.80
2018-10-18T23:26:33.353Z,83.00
2018-10-18T23:29:01.212Z,82.80
2018-10-18T23:31:29.009Z,83.20
2018-10-18T23:33:56.849Z,83.40
2018-10-18T23:36:24.665Z,83.60
2018-10-18T23:38:52.482Z,83.80
2018-10-18T23:41:20.418Z,83.50
2018-10-18T23:43:48.257Z,83.70
2018-10-18T23:46:16.016Z,84.00
2018-10-18T23:48:43.853Z,84.10
2018-10-18T23:51:11.873Z,84.30
2018-10-18T23:53:39.576Z,84.30
2018-10-18T23:56:07.434Z,84.40
2018-10-18T23:58:35.245Z,84.40
